This is the latest recevied weather packets stored in our database for station/object KC3ELT-10. If no packets are shown the sender has not sent any weather packets the latest 10 day(s).
| Time | Temp. | Humidity | Pressure | Rain* | Wind** | Luminosity | Snow |
|---|---|---|---|---|---|---|---|
| 1777751279 | 12.78° C | 38% | 1005.6 hPa | 0 mm | 1.79 m/s, 304° | - | - |
| 1777750979 | 12.78° C | 39% | 1005.6 hPa | 0 mm | 0.89 m/s, 48° | - | - |
| 1777750679 | 12.78° C | 38% | 1005.6 hPa | 0 mm | 1.34 m/s, 340° | - | - |
| 1777750379 | 12.78° C | 38% | 1005.6 hPa | 0 mm | 2.24 m/s, 356° | - | - |
| 1777750079 | 13.33° C | 37% | 1005.9 hPa | 0 mm | 0.89 m/s, 290° | - | - |
| 1777749779 | 13.89° C | 37% | 1005.9 hPa | 0 mm | 1.34 m/s, 348° | - | - |
| 1777749479 | 13.89° C | 37% | 1005.9 hPa | 0 mm | 0.89 m/s, 324° | - | - |
| 1777749179 | 13.33° C | 40% | 1006 hPa | 0 mm | 1.34 m/s, 32° | - | - |
| 1777748879 | 13.33° C | 38% | 1006 hPa | 0 mm | 1.79 m/s, 319° | - | - |
| 1777748579 | 13.33° C | 39% | 1006 hPa | 0 mm | 1.34 m/s, 310° | - | - |
| 1777748279 | 13.33° C | 39% | 1006.1 hPa | 0 mm | 0.45 m/s, 252° | - | - |
| 1777747979 | 13.89° C | 39% | 1006.1 hPa | 0 mm | 2.24 m/s, 333° | - | - |
| 1777747679 | 13.89° C | 39% | 1006.1 hPa | 0 mm | 1.79 m/s, 21° | - | - |
| 1777747379 | 13.33° C | 44% | 1006.4 hPa | 0 mm | 2.24 m/s, 38° | - | - |
| 1777747079 | 12.78° C | 41% | 1006.4 hPa | 0 mm | 0 m/s | - | - |
| 1777746779 | 12.78° C | 42% | 1006.4 hPa | 0 mm | 0.89 m/s, 21° | - | - |
| 1777746478 | 13.33° C | 39% | 1006.2 hPa | 0 mm | 1.34 m/s, 12° | - | - |
| 1777746179 | 13.33° C | 41% | 1006.2 hPa | 0 mm | 2.24 m/s, 339° | - | - |
| 1777745879 | 13.33° C | 40% | 1006.2 hPa | 0 mm | 1.79 m/s, 263° | - | - |
| 1777745579 | 12.78° C | 45% | 1006.6 hPa | 0 mm | 0.89 m/s, 0° | - | - |
| 1777745279 | 12.22° C | 44% | 1006.6 hPa | 0 mm | 1.34 m/s, 0° | - | - |
| 1777744979 | 11.67° C | 47% | 1006.6 hPa | 0 mm | 1.34 m/s, 30° | - | - |
| 1777744679 | 11.67° C | 45% | 1006.6 hPa | 0 mm | 0.45 m/s, 262° | - | - |
| 1777744379 | 11.67° C | 46% | 1006.6 hPa | 0 mm | 0.89 m/s, 314° | - | - |
| 1777744079 | 12.22° C | 44% | 1006.6 hPa | 0 mm | 1.34 m/s, 324° | - | - |
* Rain latest hour (hover to see other rain measurements)
** Current wind speed in m/s (hover to see current wind gust speed)